Time;durP1;ratioP1;P1;durP2;ratioP2;P2;SDS_P1;SDS_P2;PMS_P1;PMS_P2;Temp;Humidity;BMP_temperature;BMP_pressure;BME280_temperature;BME280_humidity;BME280_pressure;Samples;Min_cycle;Max_cycle;Signal;HPM_P1;HPM_P2
2021/06/29 00:01:50;;;;;;;56.72;43.58;;;;;;;18.50;100.00;101178.94;5075131;28;20025;-69
2021/06/29 00:04:15;;;;;;;59.90;44.83;;;;;;;18.54;100.00;101169.91;5075389;28;20388;-66
2021/06/29 00:06:40;;;;;;;60.80;46.25;;;;;;;18.53;100.00;101177.03;5075196;28;20025;-65
2021/06/29 00:09:06;;;;;;;61.58;43.78;;;;;;;18.49;100.00;101179.84;5075264;28;20057;-66
2021/06/29 00:11:31;;;;;;;65.50;45.65;;;;;;;18.50;100.00;101177.13;5075383;28;20021;-66
2021/06/29 00:13:57;;;;;;;66.47;46.42;;;;;;;18.50;100.00;101170.91;5073656;28;20056;-67
2021/06/29 00:16:22;;;;;;;61.05;45.05;;;;;;;18.46;100.00;101170.06;5075028;28;20467;-66
2021/06/29 00:18:47;;;;;;;61.55;46.47;;;;;;;18.46;100.00;101165.63;5074892;28;20078;-65
2021/06/29 00:21:13;;;;;;;63.22;47.78;;;;;;;18.38;100.00;101162.22;5074757;28;20529;-65
2021/06/29 00:23:39;;;;;;;68.38;48.00;;;;;;;18.35;100.00;101159.63;5073722;28;20381;-66
2021/06/29 00:26:08;;;;;;;65.15;47.10;;;;;;;18.36;100.00;101157.81;5074898;28;20036;-66
2021/06/29 00:28:34;;;;;;;63.92;46.65;;;;;;;18.35;100.00;101154.28;5074610;28;20025;-65
2021/06/29 00:30:59;;;;;;;64.25;47.63;;;;;;;18.34;100.00;101147.16;5074851;28;20040;-66
2021/06/29 00:33:25;;;;;;;65.22;46.53;;;;;;;18.33;100.00;101152.53;5074481;28;20050;-66
2021/06/29 00:35:50;;;;;;;69.90;50.20;;;;;;;18.25;100.00;101150.06;5074051;28;20106;-64
2021/06/29 00:38:15;;;;;;;75.03;52.83;;;;;;;18.23;100.00;101150.09;5074612;28;20027;-70
2021/06/29 00:40:40;;;;;;;79.93;53.70;;;;;;;18.18;100.00;101143.94;5074473;28;20447;-69
2021/06/29 00:43:06;;;;;;;84.05;56.00;;;;;;;18.16;100.00;101131.50;5074309;28;20064;-63
2021/06/29 00:45:31;;;;;;;84.97;55.70;;;;;;;18.26;100.00;101135.72;5074530;28;20111;-66
2021/06/29 00:47:56;;;;;;;83.38;55.08;;;;;;;18.32;100.00;101130.28;5074235;28;20024;-64
2021/06/29 00:50:22;;;;;;;86.22;56.20;;;;;;;18.34;100.00;101131.09;5074418;28;20025;-62
2021/06/29 00:52:47;;;;;;;92.82;59.13;;;;;;;18.24;100.00;101129.56;5074125;28;20462;-66
2021/06/29 00:55:13;;;;;;;90.32;59.28;;;;;;;18.19;100.00;101135.03;5074274;28;20020;-63
2021/06/29 00:57:40;;;;;;;96.65;60.22;;;;;;;18.17;100.00;101142.19;5074532;28;20086;-68
2021/06/29 01:00:08;;;;;;;97.93;61.60;;;;;;;18.19;100.00;101144.81;5074319;28;20108;-64
2021/06/29 01:02:33;;;;;;;100.65;62.47;;;;;;;18.20;100.00;101147.50;5073993;28;20020;-69
2021/06/29 01:04:58;;;;;;;99.60;63.35;;;;;;;18.27;100.00;101141.06;5074176;28;20503;-67
2021/06/29 01:07:24;;;;;;;100.30;62.97;;;;;;;18.27;100.00;101137.50;5073783;28;20108;-65
2021/06/29 01:09:49;;;;;;;103.50;63.47;;;;;;;18.21;100.00;101141.19;5073790;28;20025;-66
2021/06/29 01:12:15;;;;;;;97.82;62.38;;;;;;;18.19;100.00;101139.47;5074164;28;20056;-69
2021/06/29 01:14:40;;;;;;;100.07;61.83;;;;;;;18.17;100.00;101130.59;5073787;28;20016;-67
2021/06/29 01:17:07;;;;;;;99.72;62.35;;;;;;;18.12;100.00;101130.72;5073922;28;20029;-66
2021/06/29 01:19:39;;;;;;;98.47;62.00;;;;;;;18.08;100.00;101124.53;5073790;28;20021;-63
2021/06/29 01:22:07;;;;;;;97.50;63.37;;;;;;;18.09;100.00;101120.97;5074101;28;20360;-70
2021/06/29 01:24:33;;;;;;;99.72;62.72;;;;;;;18.09;100.00;101112.06;5073434;28;20278;-69
2021/06/29 01:32:27;;;;;;;97.50;62.03;;;;;;;18.19;100.00;101094.88;4990541;28;20120;-68
2021/06/29 01:34:53;;;;;;;100.80;61.67;;;;;;;18.25;100.00;101094.72;4991858;28;20070;-70
2021/06/29 01:37:19;;;;;;;100.07;62.60;;;;;;;18.26;100.00;101092.94;4991932;28;20030;-62
2021/06/29 01:39:59;;;;;;;102.40;62.00;;;;;;;18.31;100.00;101100.88;4992125;28;20064;-62
2021/06/29 01:42:25;;;;;;;98.53;60.70;;;;;;;18.31;100.00;101096.38;4991814;28;20042;-62
2021/06/29 01:44:51;;;;;;;99.07;62.90;;;;;;;18.32;100.00;101098.16;4975644;28;20130;-63
2021/06/29 01:47:25;;;;;;;98.18;61.72;;;;;;;18.28;100.00;101101.81;4991083;28;20058;-62
2021/06/29 01:49:50;;;;;;;99.50;61.22;;;;;;;18.23;100.00;101099.25;4991964;28;20034;-62
2021/06/29 01:52:16;;;;;;;100.10;61.08;;;;;;;18.22;100.00;101091.28;4991574;28;20085;-62
2021/06/29 01:54:43;;;;;;;95.35;59.10;;;;;;;18.21;100.00;101089.50;4991658;28;20445;-62
2021/06/29 01:57:15;;;;;;;95.88;61.35;;;;;;;18.23;100.00;101085.88;4987946;28;20113;-62
2021/06/29 01:59:44;;;;;;;99.10;61.70;;;;;;;18.21;100.00;101084.16;4988211;28;20038;-62
2021/06/29 02:02:09;;;;;;;101.78;63.17;;;;;;;18.09;100.00;101080.84;4987731;28;20423;-63
2021/06/29 02:04:35;;;;;;;108.35;65.20;;;;;;;17.97;100.00;101075.78;4991531;28;20026;-62
2021/06/29 02:07:00;;;;;;;105.90;65.78;;;;;;;17.91;100.00;101076.78;4999767;28;20053;-62
2021/06/29 02:09:25;;;;;;;109.30;65.63;;;;;;;17.92;100.00;101070.50;5073167;28;20489;-62
2021/06/29 02:11:51;;;;;;;108.32;64.50;;;;;;;17.92;100.00;101073.19;5073054;28;20355;-63
2021/06/29 02:14:16;;;;;;;116.10;69.25;;;;;;;17.90;100.00;101068.81;5073230;28;20027;-63
2021/06/29 02:16:41;;;;;;;112.40;67.97;;;;;;;17.91;100.00;101067.88;5072755;28;20425;-62
2021/06/29 02:19:09;;;;;;;113.13;66.80;;;;;;;17.91;100.00;101060.75;5072842;28;20085;-62
2021/06/29 02:21:34;;;;;;;116.32;67.45;;;;;;;17.84;100.00;101059.09;5072638;28;20069;-63
2021/06/29 02:24:00;;;;;;;122.05;69.53;;;;;;;17.78;100.00;101060.13;5072739;28;20367;-63
2021/06/29 02:26:25;;;;;;;121.00;69.10;;;;;;;17.81;100.00;101060.94;5072878;28;20071;-63
2021/06/29 02:28:50;;;;;;;119.00;70.95;;;;;;;17.82;100.00;101058.22;5072641;28;20081;-69
2021/06/29 02:31:16;;;;;;;116.45;71.88;;;;;;;17.87;100.00;101063.50;5072563;28;20418;-69
2021/06/29 02:33:41;;;;;;;122.47;70.28;;;;;;;17.91;100.00;101055.41;5072558;28;20029;-70
2021/06/29 02:36:07;;;;;;;126.53;72.82;;;;;;;17.94;100.00;101057.13;5072643;28;20103;-69
2021/06/29 02:38:32;;;;;;;121.80;73.18;;;;;;;18.02;100.00;101047.13;5072454;28;20372;-66
2021/06/29 02:40:57;;;;;;;125.38;73.72;;;;;;;18.00;100.00;101051.63;5072581;28;20036;-66
2021/06/29 02:43:23;;;;;;;126.78;75.18;;;;;;;18.02;100.00;101056.94;5072383;28;20028;-70
2021/06/29 02:45:48;;;;;;;123.38;72.82;;;;;;;17.98;100.00;101065.97;5072660;28;20040;-67
2021/06/29 02:48:14;;;;;;;122.50;72.15;;;;;;;17.92;100.00;101070.50;5072307;28;20025;-67
2021/06/29 02:50:40;;;;;;;128.32;73.75;;;;;;;17.88;100.00;101082.19;5072376;28;20033;-67
2021/06/29 02:53:05;;;;;;;130.52;74.45;;;;;;;17.89;100.00;101075.91;5072386;28;20051;-67
2021/06/29 02:55:31;;;;;;;124.72;74.35;;;;;;;17.86;100.00;101089.34;5072311;28;20111;-67
2021/06/29 02:57:56;;;;;;;124.45;73.38;;;;;;;17.87;100.00;101087.56;5072563;28;20021;-70
2021/06/29 03:00:22;;;;;;;129.93;74.68;;;;;;;17.84;100.00;101087.59;5076295;28;20055;-67
2021/06/29 03:02:47;;;;;;;123.53;72.78;;;;;;;17.86;100.00;101085.81;5076145;28;20116;-66
2021/06/29 03:05:14;;;;;;;120.97;71.68;;;;;;;17.86;100.00;101077.78;5076139;28;20056;-67
2021/06/29 03:07:40;;;;;;;120.93;73.70;;;;;;;17.88;100.00;101079.50;5072681;28;20386;-68
2021/06/29 03:10:06;;;;;;;125.30;75.07;;;;;;;17.92;100.00;101080.34;5076157;28;20111;-64
2021/06/29 03:12:33;;;;;;;122.47;72.60;;;;;;;17.91;100.00;101075.91;5076271;28;20032;-64
2021/06/29 03:15:00;;;;;;;123.25;72.53;;;;;;;17.92;100.00;101070.50;5076211;28;20115;-62
2021/06/29 03:17:26;;;;;;;122.18;70.95;;;;;;;17.94;100.00;101063.34;5075848;28;20024;-64
2021/06/29 03:19:52;;;;;;;126.05;75.70;;;;;;;17.92;100.00;101065.16;5075672;28;20024;-63
2021/06/29 03:22:17;;;;;;;125.20;73.90;;;;;;;17.90;100.00;101064.34;5076274;28;20024;-63
2021/06/29 03:24:43;;;;;;;124.32;72.57;;;;;;;17.90;100.00;101071.50;5075937;28;20020;-63
2021/06/29 03:27:09;;;;;;;127.53;74.38;;;;;;;17.82;100.00;101070.72;5071781;28;20028;-62
2021/06/29 03:29:36;;;;;;;128.23;74.88;;;;;;;17.75;100.00;101076.22;5075981;28;20115;-64
2021/06/29 03:32:01;;;;;;;126.95;74.68;;;;;;;17.69;100.00;101067.44;5075720;28;20039;-64
2021/06/29 03:34:26;;;;;;;122.40;72.97;;;;;;;17.70;100.00;101069.22;5075438;28;20024;-63
2021/06/29 03:36:52;;;;;;;125.63;72.70;;;;;;;17.72;100.00;101062.94;5075821;28;20025;-64
2021/06/29 03:39:18;;;;;;;126.50;75.40;;;;;;;17.77;100.00;101063.69;5075506;28;20499;-64
2021/06/29 03:41:44;;;;;;;121.88;71.80;;;;;;;17.80;100.00;101062.75;5075557;28;20035;-63
2021/06/29 03:44:09;;;;;;;127.13;73.05;;;;;;;17.80;100.00;101075.25;5075495;28;20052;-64
2021/06/29 03:46:35;;;;;;;125.15;71.82;;;;;;;17.77;100.00;101079.72;5075346;28;20052;-65
2021/06/29 03:49:00;;;;;;;126.57;73.70;;;;;;;17.75;100.00;101078.91;5075390;28;20025;-63
2021/06/29 03:51:26;;;;;;;120.40;71.70;;;;;;;17.78;100.00;101081.50;5075102;28;20475;-62
2021/06/29 03:53:51;;;;;;;118.30;71.82;;;;;;;17.80;100.00;101077.91;5075273;28;20031;-64
2021/06/29 03:56:29;;;;;;;118.20;70.72;;;;;;;17.81;100.00;101068.97;5075880;28;20017;-63
2021/06/29 03:58:59;;;;;;;120.68;69.97;;;;;;;17.81;100.00;101085.91;5075405;28;20020;-63
2021/06/29 04:01:25;;;;;;;113.20;68.20;;;;;;;17.86;100.00;101072.44;5075177;28;20163;-64
2021/06/29 04:03:54;;;;;;;111.63;67.60;;;;;;;17.89;100.00;101077.72;5074970;28;20379;-69
2021/06/29 04:06:25;;;;;;;111.97;70.53;;;;;;;17.91;100.00;101071.44;5075446;28;20020;-67
2021/06/29 04:08:51;;;;;;;117.10;69.78;;;;;;;17.90;100.00;101069.69;5075142;28;20024;-69
2021/06/29 04:11:17;;;;;;;113.65;71.13;;;;;;;17.90;100.00;101069.69;5074342;28;20021;-68
2021/06/29 04:13:42;;;;;;;116.60;71.22;;;;;;;17.86;100.00;101067.94;5075107;28;20121;-62
2021/06/29 04:16:08;;;;;;;119.63;70.55;;;;;;;17.88;100.00;101073.25;5074847;28;20032;-62
2021/06/29 04:18:33;;;;;;;113.40;68.97;;;;;;;17.89;100.00;101073.22;5074664;28;20032;-62
2021/06/29 04:20:59;;;;;;;121.65;71.78;;;;;;;17.91;100.00;101070.56;5075102;28;20033;-62
2021/06/29 04:23:24;;;;;;;114.32;72.55;;;;;;;17.91;100.00;101075.91;5074776;28;20025;-61
2021/06/29 04:25:49;;;;;;;120.18;73.32;;;;;;;17.90;100.00;101074.16;5074694;28;20028;-62
2021/06/29 04:28:15;;;;;;;122.63;74.85;;;;;;;17.88;100.00;101074.16;5074952;28;20021;-62
2021/06/29 04:30:40;;;;;;;122.60;74.88;;;;;;;17.85;100.00;101084.03;5074607;28;20494;-62
2021/06/29 04:33:05;;;;;;;123.32;76.15;;;;;;;17.85;100.00;101078.69;5074469;28;20490;-62
2021/06/29 04:35:31;;;;;;;129.02;77.85;;;;;;;17.87;100.00;101074.19;5074762;28;20020;-62
2021/06/29 04:37:56;;;;;;;126.13;78.03;;;;;;;17.87;100.00;101074.19;5074469;28;20535;-61
2021/06/29 04:40:21;;;;;;;134.90;79.78;;;;;;;17.89;100.00;101077.72;5074559;28;20025;-61
2021/06/29 04:42:47;;;;;;;133.18;81.28;;;;;;;17.92;100.00;101072.31;5074340;28;20104;-62
2021/06/29 04:45:13;;;;;;;139.90;82.28;;;;;;;17.96;100.00;101074.00;5074582;28;20108;-62
2021/06/29 04:47:44;;;;;;;143.25;85.35;;;;;;;17.95;100.00;101072.25;5074457;28;20464;-66
2021/06/29 04:50:11;;;;;;;145.50;85.95;;;;;;;17.98;100.00;101066.81;5070482;28;20380;-67
2021/06/29 04:52:36;;;;;;;140.75;83.28;;;;;;;18.03;100.00;101067.63;5073853;28;20055;-66
2021/06/29 04:55:03;;;;;;;131.23;81.03;;;;;;;18.11;100.00;101068.31;5074105;28;20020;-66
2021/06/29 04:57:28;;;;;;;129.25;81.40;;;;;;;18.12;100.00;101069.19;5073755;28;20068;-66
2021/06/29 04:59:54;;;;;;;134.85;82.13;;;;;;;18.15;100.00;101069.13;5073970;28;20113;-66
2021/06/29 05:02:19;;;;;;;129.48;80.07;;;;;;;18.14;100.00;101063.81;5069591;28;20020;-67
2021/06/29 05:04:44;;;;;;;132.13;79.70;;;;;;;18.09;100.00;101058.56;5071808;28;20483;-66
2021/06/29 05:07:09;;;;;;;131.20;79.85;;;;;;;18.06;100.00;101061.31;5072487;28;20025;-65
2021/06/29 05:09:35;;;;;;;136.60;84.32;;;;;;;18.04;100.00;101052.44;5072955;28;20021;-66
2021/06/29 05:12:00;;;;;;;138.05;86.28;;;;;;;18.06;100.00;101059.50;5072122;28;20029;-65
2021/06/29 05:14:26;;;;;;;141.25;87.90;;;;;;;18.04;100.00;101055.09;5071962;28;20507;-67
2021/06/29 05:16:51;;;;;;;140.25;87.50;;;;;;;18.02;100.00;101057.81;5072273;28;20044;-69
2021/06/29 05:19:16;;;;;;;143.60;89.25;;;;;;;17.98;100.00;101063.28;5072363;28;20032;-67
2021/06/29 05:21:42;;;;;;;146.70;88.97;;;;;;;17.96;100.00;101067.81;5071873;28;20498;-66
2021/06/29 05:24:07;;;;;;;148.75;92.07;;;;;;;17.96;100.00;101068.66;5071102;28;20384;-68
2021/06/29 05:26:33;;;;;;;142.82;88.22;;;;;;;18.04;100.00;101081.84;5071863;28;20112;-66
2021/06/29 05:28:58;;;;;;;142.85;88.65;;;;;;;18.07;100.00;101084.44;5072043;28;20036;-66
2021/06/29 05:31:23;;;;;;;145.85;88.88;;;;;;;18.10;100.00;101087.06;5072113;28;20416;-65
2021/06/29 05:33:49;;;;;;;144.40;90.75;;;;;;;18.10;100.00;101089.72;5070932;28;20038;-67
2021/06/29 05:36:14;;;;;;;150.23;92.65;;;;;;;18.10;100.00;101098.66;5071001;28;20316;-67
2021/06/29 05:38:40;;;;;;;154.40;94.22;;;;;;;18.11;100.00;101103.09;5071527;28;20118;-68
2021/06/29 05:41:05;;;;;;;151.20;96.00;;;;;;;17.99;100.00;101100.69;5070625;28;20020;-67
2021/06/29 05:43:30;;;;;;;160.35;96.28;;;;;;;17.92;100.00;101099.94;5071636;28;20020;-67
2021/06/29 05:45:56;;;;;;;162.43;95.72;;;;;;;17.91;100.00;101091.94;5070911;28;20115;-67
2021/06/29 05:48:22;;;;;;;158.70;95.28;;;;;;;17.87;100.00;101091.13;5069901;28;20103;-66
2021/06/29 05:50:47;;;;;;;161.25;94.13;;;;;;;17.87;100.00;101096.47;5069440;28;20471;-65
2021/06/29 05:53:14;;;;;;;160.02;95.07;;;;;;;17.86;100.00;101100.03;5070858;28;20055;-66
2021/06/29 05:55:40;;;;;;;162.63;94.15;;;;;;;17.88;100.00;101097.34;5071278;28;20033;-67
2021/06/29 05:58:05;;;;;;;172.45;97.40;;;;;;;17.80;100.00;101104.66;5071248;28;20074;-62
2021/06/29 06:00:31;;;;;;;178.82;99.35;;;;;;;17.73;100.00;101104.75;5071351;28;20121;-61
2021/06/29 06:02:56;;;;;;;183.57;99.85;;;;;;;17.64;100.00;101099.63;5071156;28;20021;-60
2021/06/29 06:05:22;;;;;;;202.93;104.53;;;;;;;17.53;100.00;101097.19;5068499;28;20040;-60
2021/06/29 06:07:47;;;;;;;195.63;105.25;;;;;;;17.51;100.00;101101.66;5070868;28;20024;-60
2021/06/29 06:10:16;;;;;;;209.30;110.72;;;;;;;17.53;100.00;101105.22;5069646;28;20029;-61
2021/06/29 06:12:41;;;;;;;218.13;112.45;;;;;;;17.47;100.00;101101.75;5070712;28;20016;-60
2021/06/29 06:15:07;;;;;;;208.93;107.93;;;;;;;17.55;100.00;101105.16;5071091;28;20024;-60
2021/06/29 06:17:37;;;;;;;215.90;110.88;;;;;;;17.58;100.00;101102.44;5070975;28;20441;-61
2021/06/29 06:20:08;;;;;;;205.40;109.55;;;;;;;17.70;100.00;101103.97;5068868;28;20471;-61
2021/06/29 06:22:33;;;;;;;200.77;109.82;;;;;;;17.82;100.00;101108.16;5070769;28;20027;-61
2021/06/29 06:24:59;;;;;;;207.35;112.13;;;;;;;17.92;100.00;101105.28;5070893;28;20028;-63
2021/06/29 06:27:25;;;;;;;193.25;107.38;;;;;;;18.01;100.00;101097.97;5071124;28;20016;-61
2021/06/29 06:29:50;;;;;;;192.75;106.55;;;;;;;18.08;100.00;101104.94;5070847;28;20025;-62
2021/06/29 06:32:16;;;;;;;198.82;107.30;;;;;;;18.20;100.00;101095.75;5069695;28;20054;-62
2021/06/29 06:34:41;;;;;;;188.13;106.15;;;;;;;18.22;100.00;101089.47;5069201;28;20016;-60
2021/06/29 06:37:07;;;;;;;190.05;105.65;;;;;;;18.16;100.00;101086.94;5069267;28;20056;-61
2021/06/29 06:39:33;;;;;;;194.65;103.93;;;;;;;18.00;100.00;101093.53;5069735;28;20309;-62
2021/06/29 06:41:58;;;;;;;199.13;107.60;;;;;;;17.96;100.00;101090.06;5070655;28;20032;-60
2021/06/29 06:44:24;;;;;;;214.50;111.35;;;;;;;17.90;100.00;101092.88;5070583;28;20021;-61
2021/06/29 06:46:50;;;;;;;208.30;109.95;;;;;;;17.97;100.00;101097.19;5070661;28;20364;-61
2021/06/29 06:49:15;;;;;;;221.05;111.80;;;;;;;17.95;100.00;101088.28;5070019;28;20028;-61
2021/06/29 06:51:40;;;;;;;208.40;106.18;;;;;;;18.15;100.00;101092.31;5070496;28;20486;-59
2021/06/29 06:54:06;;;;;;;213.45;109.75;;;;;;;18.32;100.00;101090.13;5070608;28;20055;-61
2021/06/29 06:56:31;;;;;;;212.48;107.60;;;;;;;18.34;100.00;101093.63;5070880;28;20514;-61
2021/06/29 06:58:57;;;;;;;204.45;105.43;;;;;;;18.41;100.00;101100.59;5070132;28;20056;-61
2021/06/29 07:01:22;;;;;;;199.63;103.88;;;;;;;18.48;100.00;101096.00;5070249;28;20033;-61
2021/06/29 07:03:48;;;;;;;194.13;101.60;;;;;;;18.63;100.00;101097.41;5070717;28;20024;-60
2021/06/29 07:06:14;;;;;;;205.20;104.68;;;;;;;18.70;100.00;101101.69;5070780;28;20044;-61
2021/06/29 07:08:39;;;;;;;209.52;108.75;;;;;;;18.77;100.00;101105.97;5070719;28;20498;-60
2021/06/29 07:11:06;;;;;;;208.80;106.72;;;;;;;18.81;100.00;101101.41;5069341;28;20033;-64
2021/06/29 07:13:31;;;;;;;193.05;96.90;;;;;;;18.86;100.00;101099.53;5068598;28;20479;-64
2021/06/29 07:15:57;;;;;;;195.07;98.07;;;;;;;18.81;100.00;101104.06;5068143;28;20059;-66
2021/06/29 07:18:22;;;;;;;191.73;96.43;;;;;;;18.86;100.00;101101.28;5069446;28;20052;-66
2021/06/29 07:20:49;;;;;;;180.40;93.20;;;;;;;19.08;100.00;101098.97;5069713;28;20372;-68
2021/06/29 07:23:15;;;;;;;175.50;86.47;;;;;;;19.25;100.00;101099.38;5070500;28;20104;-66
2021/06/29 07:25:41;;;;;;;168.32;84.63;;;;;;;19.27;100.00;101092.16;5069862;28;20483;-66
2021/06/29 07:28:07;;;;;;;166.50;83.28;;;;;;;19.45;100.00;101088.06;5068921;28;20028;-66
2021/06/29 07:30:34;;;;;;;150.07;74.40;;;;;;;19.59;98.50;101093.03;5070494;28;20158;-65
2021/06/29 07:32:59;;;;;;;141.90;70.28;;;;;;;19.77;96.79;101083.56;5070264;28;20492;-68
2021/06/29 07:35:27;;;;;;;142.27;70.70;;;;;;;19.90;95.09;101084.09;5068543;28;20036;-66
2021/06/29 07:37:53;;;;;;;121.50;64.22;;;;;;;19.91;90.77;101080.50;5070541;28;20035;-66
2021/06/29 07:40:18;;;;;;;103.78;52.42;;;;;;;19.88;86.89;101085.97;5069587;28;20036;-65
2021/06/29 07:42:43;;;;;;;101.18;52.58;;;;;;;19.77;87.94;101085.38;5070359;28;20032;-66
2021/06/29 07:45:09;;;;;;;98.47;52.85;;;;;;;19.66;89.41;101083.03;5069924;28;20106;-61
2021/06/29 07:47:36;;;;;;;99.97;52.45;;;;;;;19.69;87.69;101074.88;5073656;28;20024;-61
2021/06/29 07:50:06;;;;;;;111.18;57.38;;;;;;;19.76;90.12;101076.47;5073909;28;20062;-61
2021/06/29 07:52:31;;;;;;;112.38;57.13;;;;;;;19.92;92.99;101078.69;5072845;28;20048;-61
2021/06/29 07:54:57;;;;;;;107.85;57.53;;;;;;;19.89;87.67;101086.84;5073692;28;20417;-61
2021/06/29 07:57:22;;;;;;;107.18;56.67;;;;;;;19.94;86.25;101082.22;5073909;28;20032;-61
2021/06/29 07:59:48;;;;;;;107.50;55.75;;;;;;;19.73;89.54;101089.97;5073548;28;20025;-62
2021/06/29 08:02:13;;;;;;;101.10;55.55;;;;;;;19.71;88.11;101083.75;5073481;28;20035;-61
2021/06/29 08:04:40;;;;;;;106.10;54.17;;;;;;;19.47;89.54;101086.25;5072258;28;20480;-62
2021/06/29 08:07:06;;;;;;;111.95;57.17;;;;;;;19.48;91.46;101089.78;5073110;28;20459;-61
2021/06/29 08:09:31;;;;;;;109.93;56.13;;;;;;;19.52;88.93;101091.47;5073872;28;20063;-62
2021/06/29 08:11:57;;;;;;;107.18;55.65;;;;;;;19.63;88.19;101096.50;5070942;28;20467;-62
2021/06/29 08:14:22;;;;;;;109.00;55.13;;;;;;;19.75;88.86;101097.97;5074515;28;20070;-61
2021/06/29 08:16:47;;;;;;;110.30;56.28;;;;;;;19.78;90.04;101098.75;5068928;28;20025;-61
2021/06/29 08:19:13;;;;;;;106.93;52.90;;;;;;;19.75;88.34;101093.47;5073233;28;20032;-60
2021/06/29 08:21:38;;;;;;;108.60;53.95;;;;;;;19.83;89.49;101098.63;5072947;28;20028;-60
2021/06/29 08:24:05;;;;;;;109.97;55.25;;;;;;;19.90;85.39;101104.69;5073880;28;20031;-61
2021/06/29 08:26:30;;;;;;;104.45;52.78;;;;;;;19.95;84.30;101098.25;5073136;28;20033;-60
2021/06/29 08:28:55;;;;;;;110.47;54.67;;;;;;;19.81;86.86;101096.00;5072640;28;20027;-61
2021/06/29 08:31:21;;;;;;;110.95;55.03;;;;;;;20.12;87.45;101096.84;5073165;28;20112;-60
2021/06/29 08:33:48;;;;;;;102.85;53.63;;;;;;;20.33;82.95;101101.53;5068486;28;20383;-61
2021/06/29 08:36:16;;;;;;;111.60;55.95;;;;;;;20.27;81.25;101099.06;5072959;28;20062;-60
2021/06/29 08:38:41;;;;;;;107.70;55.40;;;;;;;20.33;86.25;101095.31;5072388;28;20021;-60
2021/06/29 08:41:07;;;;;;;106.88;54.33;;;;;;;20.25;81.66;101100.03;5072377;28;20032;-61
2021/06/29 08:43:33;;;;;;;107.85;54.40;;;;;;;20.31;82.04;101102.50;5073827;28;20077;-60
2021/06/29 08:45:58;;;;;;;105.65;53.08;;;;;;;20.73;79.93;101102.91;5074026;28;20029;-61
2021/06/29 08:48:24;;;;;;;106.85;52.55;;;;;;;20.96;79.61;101097.72;5073853;28;20159;-61
2021/06/29 08:50:49;;;;;;;110.03;54.05;;;;;;;20.89;77.88;101100.59;5073006;28;20060;-61
2021/06/29 08:53:15;;;;;;;105.07;52.58;;;;;;;20.89;77.96;101097.03;5073593;28;20047;-61
2021/06/29 08:55:43;;;;;;;103.10;53.28;;;;;;;21.02;77.31;101092.13;5073338;28;20566;-61
2021/06/29 08:58:08;;;;;;;104.78;53.63;;;;;;;21.29;78.35;101092.03;5073245;28;20037;-62
2021/06/29 09:00:34;;;;;;;106.50;54.80;;;;;;;21.18;75.84;101104.06;5073800;28;20025;-62
2021/06/29 09:02:59;;;;;;;102.57;55.08;;;;;;;20.86;77.43;101097.16;5073858;28;20029;-62
2021/06/29 09:05:30;;;;;;;113.32;56.10;;;;;;;20.85;78.26;101107.03;5073680;28;20412;-61
2021/06/29 09:08:08;;;;;;;110.38;55.85;;;;;;;20.96;78.73;101103.09;5073363;28;20020;-62
2021/06/29 09:10:35;;;;;;;110.32;56.00;;;;;;;21.02;76.62;101108.22;5071725;28;20494;-64
2021/06/29 09:13:02;;;;;;;107.68;56.25;;;;;;;20.83;76.75;101103.50;5073556;28;20024;-62
2021/06/29 09:15:44;;;;;;;104.43;55.63;;;;;;;20.92;78.81;101096.06;5074090;28;20056;-62
2021/06/29 09:18:13;;;;;;;113.20;55.13;;;;;;;20.80;76.89;101097.38;5073656;28;20028;-61
2021/06/29 09:20:41;;;;;;;110.28;56.25;;;;;;;20.92;77.86;101096.94;5073499;28;20028;-62
2021/06/29 09:23:22;;;;;;;109.50;56.83;;;;;;;20.89;78.17;101097.91;5073302;28;20525;-62
2021/06/29 09:25:55;;;;;;;109.28;54.80;;;;;;;20.92;76.69;101096.06;5069990;28;20029;-66
2021/06/29 09:28:23;;;;;;;115.65;57.58;;;;;;;20.61;79.18;101106.00;5070554;28;20039;-65
2021/06/29 09:31:05;;;;;;;110.78;56.00;;;;;;;20.88;76.82;101100.63;5047046;28;20064;-61
2021/06/29 09:33:36;;;;;;;107.50;56.80;;;;;;;20.97;75.43;101104.81;5073427;28;20153;-65
2021/06/29 09:36:07;;;;;;;108.70;54.60;;;;;;;21.03;76.36;101097.44;5073173;28;20128;-70
2021/06/29 09:38:35;;;;;;;110.10;56.00;;;;;;;21.16;76.31;101105.94;5069203;28;20432;-69
2021/06/29 09:41:03;;;;;;;115.20;57.05;;;;;;;21.29;74.05;101106.38;5073301;28;20016;-69
2021/06/29 09:43:31;;;;;;;108.22;55.15;;;;;;;21.47;76.14;101094.06;5073252;28;20028;-68
2021/06/29 09:46:01;;;;;;;109.40;55.08;;;;;;;21.89;71.97;101112.22;5073232;28;20069;-70
2021/06/29 09:48:41;;;;;;;109.22;56.25;;;;;;;22.57;71.22;101111.34;5072917;28;20025;-70
2021/06/29 09:51:18;;;;;;;106.13;54.92;;;;;;;23.01;69.58;101107.69;5070772;28;20036;-68
2021/06/29 09:53:45;;;;;;;103.13;56.47;;;;;;;22.82;68.66;101103.13;5073312;28;20020;-67
2021/06/29 09:56:14;;;;;;;102.47;55.40;;;;;;;22.89;68.03;101103.72;5072760;28;20111;-62
2021/06/29 09:58:42;;;;;;;96.57;54.33;;;;;;;22.87;66.74;101114.56;5072586;28;20025;-61
2021/06/29 10:01:08;;;;;;;97.88;52.95;;;;;;;22.78;68.22;101112.28;5073200;28;20035;-61
2021/06/29 10:03:38;;;;;;;93.07;51.83;;;;;;;23.03;66.17;101111.22;5072847;28;20024;-61
2021/06/29 10:06:14;;;;;;;97.78;51.80;;;;;;;23.17;67.89;101111.53;5072720;28;20479;-61
2021/06/29 10:08:44;;;;;;;89.07;49.20;;;;;;;23.67;65.50;101115.56;5072330;28;20029;-62
2021/06/29 10:11:11;;;;;;;83.75;47.53;;;;;;;24.07;62.32;101120.94;5072875;28;20032;-62
2021/06/29 10:13:43;;;;;;;89.32;49.03;;;;;;;23.60;63.54;101120.38;5072599;28;20094;-62
2021/06/29 10:16:09;;;;;;;;;;;;;;;23.83;65.15;101118.44;5073206;28;20384;-62
2021/06/29 10:18:43;;;;;;;78.53;45.97;;;;;;;24.70;61.31;101126.00;5073000;28;19913;-62
2021/06/29 10:21:19;;;;;;;73.30;44.70;;;;;;;25.68;56.10;101114.56;5072893;28;20162;-62
2021/06/29 10:23:45;;;;;;;67.60;44.03;;;;;;;26.23;53.50;101115.19;5072523;28;20480;-62
2021/06/29 10:26:12;;;;;;;71.97;43.40;;;;;;;26.20;53.26;101104.53;5072412;28;20040;-63
2021/06/29 10:28:39;;;;;;;70.75;43.42;;;;;;;26.95;51.56;101110.06;5072513;28;20024;-64
2021/06/29 10:31:05;;;;;;;67.72;42.95;;;;;;;27.37;50.25;101105.72;5071241;28;20059;-63
2021/06/29 10:33:32;;;;;;;67.88;44.47;;;;;;;27.33;50.94;101101.41;5068722;28;20104;-64
2021/06/29 10:36:00;;;;;;;58.63;38.00;;;;;;;27.96;49.18;101105.63;5070848;28;20050;-62
2021/06/29 10:38:26;;;;;;;61.28;39.33;;;;;;;28.77;46.51;101103.06;5069264;28;20051;-64
2021/06/29 10:40:53;;;;;;;63.72;40.53;;;;;;;27.91;50.69;101096.88;5070423;28;20074;-62
2021/06/29 10:43:19;;;;;;;62.75;40.10;;;;;;;28.15;48.24;101101.75;5072452;28;20078;-71
2021/06/29 10:45:47;;;;;;;61.45;37.65;;;;;;;28.62;47.25;101094.13;5072218;28;20112;-65
2021/06/29 10:48:18;;;;;;;45.58;28.02;;;;;;;29.07;45.64;101089.19;5072668;28;20029;-68
2021/06/29 10:50:44;;;;;;;46.53;29.10;;;;;;;30.48;42.47;101090.88;5068323;28;20525;-69
2021/06/29 10:53:32;;;;;;;47.28;30.25;;;;;;;31.71;39.94;101093.19;5072100;28;20051;-64
2021/06/29 10:55:57;;;;;;;46.85;30.55;;;;;;;32.07;38.41;101085.69;5069800;28;20029;-63
2021/06/29 10:58:46;;;;;;;47.53;29.48;;;;;;;32.72;38.83;101085.75;5072255;28;20035;-62
2021/06/29 11:01:28;;;;;;;44.28;27.90;;;;;;;32.84;36.38;101087.44;5071816;28;20483;-64